createdAt,value
2019-05-06T00:01:07.690Z,95.40
2019-05-06T00:03:45.125Z,77.50
2019-05-06T00:09:01.367Z,99.90
2019-05-06T00:11:44.870Z,68.20
2019-05-06T00:14:23.553Z,68.00
2019-05-06T00:17:03.894Z,67.00
2019-05-06T00:19:45.369Z,67.60
2019-05-06T00:22:24.790Z,67.30
2019-05-06T00:25:10.677Z,66.70
2019-05-06T00:28:05.863Z,65.80
2019-05-06T00:30:43.951Z,65.90
2019-05-06T00:33:21.499Z,64.90
2019-05-06T00:36:01.387Z,65.30
2019-05-06T00:41:25.359Z,95.50
2019-05-06T00:44:05.528Z,80.50
2019-05-06T00:49:18.106Z,79.60
2019-05-06T00:51:55.792Z,76.40
2019-05-06T00:54:34.181Z,78.40
2019-05-06T00:57:13.974Z,78.00
2019-05-06T01:02:26.786Z,67.20
2019-05-06T01:05:07.371Z,59.60
2019-05-06T01:07:54.738Z,76.50
2019-05-06T01:10:34.394Z,61.20
2019-05-06T01:13:28.063Z,59.70
2019-05-06T01:16:06.122Z,62.70
2019-05-06T01:18:45.453Z,62.80
2019-05-06T01:21:23.782Z,60.70
2019-05-06T01:24:03.783Z,58.00
2019-05-06T01:26:44.170Z,58.00
2019-05-06T01:29:24.201Z,91.40
2019-05-06T01:32:03.523Z,57.70
2019-05-06T01:34:40.432Z,71.30
2019-05-06T01:37:24.037Z,73.50
2019-05-06T01:40:14.491Z,72.60
2019-05-06T01:43:11.270Z,71.10
2019-05-06T01:45:49.167Z,63.50
2019-05-06T01:48:44.323Z,70.90
2019-05-06T01:51:24.335Z,72.50
2019-05-06T01:54:03.746Z,54.80
2019-05-06T01:56:44.195Z,54.90
2019-05-06T01:59:21.201Z,54.50
2019-05-06T02:02:02.225Z,55.10
2019-05-06T02:04:44.376Z,54.90
2019-05-06T02:07:24.081Z,71.10
2019-05-06T02:10:03.968Z,54.60
2019-05-06T02:12:44.245Z,54.50
2019-05-06T02:15:23.886Z,53.60
2019-05-06T02:18:03.919Z,53.90
2019-05-06T02:20:44.425Z,54.50
2019-05-06T02:23:24.138Z,80.70
2019-05-06T02:26:02.116Z,53.30
2019-05-06T02:28:43.553Z,53.70
2019-05-06T02:31:37.056Z,53.90
2019-05-06T02:34:25.124Z,64.10
2019-05-06T02:37:25.378Z,63.70
2019-05-06T02:45:16.093Z,56.60
2019-05-06T02:51:07.185Z,61.50
2019-05-06T02:53:45.008Z,59.50
2019-05-06T02:58:57.706Z,61.90
2019-05-06T03:01:35.668Z,62.10
2019-05-06T03:09:26.644Z,63.20
2019-05-06T03:12:06.496Z,61.70
2019-05-06T03:14:44.188Z,56.00
2019-05-06T03:17:23.739Z,62.90
2019-05-06T03:20:04.188Z,63.50
2019-05-06T03:25:33.194Z,64.80
2019-05-06T03:28:13.079Z,65.10
2019-05-06T03:30:55.901Z,65.70
2019-05-06T03:33:47.474Z,67.10
2019-05-06T03:36:18.608Z,67.90
2019-05-06T03:38:48.471Z,67.80
2019-05-06T03:41:26.714Z,62.60
2019-05-06T03:47:05.276Z,67.60
2019-05-06T03:49:43.149Z,52.70
2019-05-06T03:52:23.251Z,62.10
2019-05-06T03:55:03.623Z,56.50
2019-05-06T03:57:42.848Z,61.60
2019-05-06T04:00:23.831Z,62.50
2019-05-06T04:03:03.122Z,61.20
2019-05-06T04:05:43.758Z,61.00
2019-05-06T04:08:24.171Z,60.10
2019-05-06T04:16:23.068Z,49.80
2019-05-06T04:28:19.042Z,60.70
2019-05-06T04:30:59.215Z,48.70
2019-05-06T04:33:37.192Z,48.80
2019-05-06T04:44:53.924Z,57.80
2019-05-06T04:52:45.082Z,56.40
2019-05-06T04:55:22.823Z,57.70
2019-05-06T05:01:23.112Z,56.40
2019-05-06T05:04:03.476Z,56.10
2019-05-06T05:06:52.456Z,57.90
2019-05-06T05:09:32.405Z,45.50
2019-05-06T05:12:23.352Z,46.30
2019-05-06T05:15:07.371Z,55.60
2019-05-06T05:18:39.531Z,54.20
2019-05-06T05:26:33.063Z,59.50
2019-05-06T05:29:12.211Z,43.00
2019-05-06T05:31:52.826Z,43.60
2019-05-06T05:34:39.530Z,43.40
2019-05-06T05:37:09.250Z,44.00
2019-05-06T05:39:52.130Z,57.90
2019-05-06T05:42:54.687Z,58.60
2019-05-06T05:45:32.794Z,49.50
2019-05-06T05:50:55.005Z,51.50
2019-05-06T05:53:33.148Z,50.70
2019-05-06T06:01:23.260Z,50.30
2019-05-06T06:04:02.840Z,50.00
2019-05-06T06:06:39.300Z,50.40
2019-05-06T06:11:57.536Z,51.00
2019-05-06T06:18:05.284Z,51.50
2019-05-06T06:21:27.137Z,51.60
2019-05-06T06:24:03.159Z,51.80
2019-05-06T06:32:13.752Z,56.60
2019-05-06T06:35:12.113Z,45.50
2019-05-06T06:38:19.215Z,47.00
2019-05-06T06:40:56.961Z,63.50
2019-05-06T06:43:34.698Z,63.10
2019-05-06T06:48:52.617Z,62.40
2019-05-06T06:51:32.903Z,64.00
2019-05-06T06:57:08.868Z,64.40
2019-05-06T06:59:58.804Z,65.30
2019-05-06T07:02:43.238Z,65.10
2019-05-06T07:10:52.523Z,53.80
2019-05-06T07:13:32.764Z,54.40
2019-05-06T07:16:14.891Z,55.20
2019-05-06T07:18:52.792Z,55.80
2019-05-06T07:21:43.734Z,72.40
2019-05-06T07:24:23.428Z,56.60
2019-05-06T07:27:22.825Z,56.60
2019-05-06T07:30:02.999Z,74.40
2019-05-06T07:32:43.921Z,57.20
2019-05-06T07:35:23.794Z,57.40
2019-05-06T07:38:02.448Z,58.20
2019-05-06T07:40:41.905Z,58.10
2019-05-06T07:43:37.457Z,70.50
2019-05-06T07:46:23.738Z,71.10
2019-05-06T07:59:22.525Z,73.80
2019-05-06T08:02:02.109Z,74.80
2019-05-06T08:04:39.191Z,74.90
2019-05-06T08:09:53.226Z,74.90
2019-05-06T08:15:06.510Z,75.80
2019-05-06T08:17:45.091Z,75.80
2019-05-06T08:20:25.618Z,76.40
2019-05-06T08:23:12.618Z,78.00
2019-05-06T08:26:10.026Z,78.10
2019-05-06T08:28:41.451Z,79.00
2019-05-06T08:33:52.486Z,80.30
2019-05-06T08:36:37.788Z,80.80
2019-05-06T08:47:06.563Z,83.30
2019-05-06T08:50:07.273Z,85.40
2019-05-06T08:58:13.944Z,66.60
2019-05-06T09:01:08.334Z,88.00
2019-05-06T09:03:46.268Z,71.30
2019-05-06T09:06:31.540Z,70.50
2019-05-06T09:09:07.412Z,69.90
2019-05-06T09:11:45.616Z,73.40
2019-05-06T09:14:24.657Z,70.30
2019-05-06T09:17:04.549Z,70.60
2019-05-06T09:19:45.191Z,70.80
2019-05-06T09:22:23.494Z,71.20
2019-05-06T09:25:02.473Z,71.30
2019-05-06T09:28:02.339Z,91.80
2019-05-06T09:30:55.049Z,87.40
2019-05-06T09:39:45.196Z,72.30
2019-05-06T09:42:25.762Z,72.90
2019-05-06T09:45:05.212Z,91.00
2019-05-06T09:48:09.620Z,91.10
2019-05-06T09:50:49.732Z,90.70
2019-05-06T09:53:44.757Z,90.70
2019-05-06T09:56:33.924Z,73.20
2019-05-06T09:59:13.915Z,73.20
2019-05-06T10:01:54.274Z,73.30
2019-05-06T10:04:32.988Z,73.20
2019-05-06T10:07:11.901Z,73.90
2019-05-06T10:09:52.359Z,72.70
2019-05-06T10:12:29.167Z,73.00
2019-05-06T10:15:09.328Z,72.40
2019-05-06T10:17:48.727Z,73.20
2019-05-06T10:20:28.530Z,73.30
2019-05-06T10:23:08.365Z,73.70
2019-05-06T10:25:46.470Z,74.10
2019-05-06T10:28:52.339Z,87.80
2019-05-06T10:31:34.004Z,90.80
2019-05-06T10:34:15.619Z,90.80
2019-05-06T10:37:12.609Z,90.50
2019-05-06T10:39:44.571Z,73.70
2019-05-06T10:42:27.379Z,74.20
2019-05-06T10:47:51.129Z,73.30
2019-05-06T10:50:33.144Z,90.50
2019-05-06T10:56:28.466Z,90.80
2019-05-06T10:59:09.834Z,91.00
2019-05-06T11:01:50.216Z,91.20
2019-05-06T11:04:32.662Z,91.50
2019-05-06T11:09:45.401Z,92.20
2019-05-06T11:12:26.477Z,75.70
2019-05-06T11:15:05.912Z,76.00
2019-05-06T11:22:58.054Z,94.10
2019-05-06T11:25:37.919Z,77.20
2019-05-06T11:28:35.212Z,77.50
2019-05-06T11:31:33.189Z,78.00
2019-05-06T11:34:27.398Z,93.60
2019-05-06T11:37:25.165Z,78.30
2019-05-06T11:40:03.407Z,78.40
2019-05-06T11:42:43.888Z,79.00
2019-05-06T11:45:24.444Z,89.30
2019-05-06T11:48:04.410Z,93.50
2019-05-06T11:50:47.202Z,93.10
2019-05-06T11:53:28.933Z,79.30
2019-05-06T11:56:12.591Z,93.50
2019-05-06T11:58:55.698Z,80.10
2019-05-06T12:01:37.464Z,80.40
2019-05-06T12:04:28.788Z,81.00
2019-05-06T12:07:11.127Z,81.20
2019-05-06T12:09:54.292Z,95.70
2019-05-06T12:12:34.222Z,81.90
2019-05-06T12:15:30.157Z,81.80
2019-05-06T12:18:45.607Z,94.60
2019-05-06T12:20:52.614Z,82.00
2019-05-06T12:23:57.811Z,94.80
2019-05-06T12:26:38.694Z,94.40
2019-05-06T12:29:23.761Z,82.30
2019-05-06T12:32:39.814Z,82.30
2019-05-06T12:35:25.100Z,82.70
2019-05-06T12:38:30.096Z,82.80
2019-05-06T12:40:59.908Z,83.30
2019-05-06T12:44:03.803Z,84.70
2019-05-06T12:50:33.182Z,83.90
2019-05-06T12:53:20.165Z,84.40
2019-05-06T12:55:58.939Z,84.70
2019-05-06T13:01:54.047Z,84.90
2019-05-06T13:04:59.648Z,86.30
2019-05-06T13:07:52.845Z,87.10
2019-05-06T13:10:58.894Z,87.20
2019-05-06T13:13:59.723Z,87.20
2019-05-06T13:16:37.495Z,86.40
2019-05-06T13:19:22.899Z,86.40
2019-05-06T13:22:17.500Z,87.70
2019-05-06T13:24:58.240Z,87.30
2019-05-06T13:28:09.608Z,87.10
2019-05-06T13:34:09.210Z,87.30
2019-05-06T13:37:07.425Z,85.40
2019-05-06T13:39:46.633Z,97.50
2019-05-06T13:42:27.701Z,97.30
2019-05-06T13:45:08.750Z,86.40
2019-05-06T13:48:03.851Z,86.60
2019-05-06T13:50:44.231Z,87.00
2019-05-06T13:53:24.484Z,86.60
2019-05-06T13:56:04.662Z,86.80
2019-05-06T13:58:44.848Z,97.60
2019-05-06T14:01:25.283Z,86.70
2019-05-06T14:04:04.035Z,87.00
2019-05-06T14:06:47.713Z,87.00
2019-05-06T14:09:32.037Z,98.70
2019-05-06T14:12:06.369Z,86.20
2019-05-06T14:14:43.953Z,85.60
2019-05-06T14:17:23.024Z,85.20
2019-05-06T14:20:02.825Z,85.20
2019-05-06T14:22:43.891Z,85.10
2019-05-06T14:25:52.695Z,85.20
2019-05-06T14:28:39.582Z,85.30
2019-05-06T14:31:25.747Z,99.80
2019-05-06T14:34:05.628Z,85.30
2019-05-06T14:36:43.522Z,84.90
2019-05-06T14:39:44.767Z,85.00
2019-05-06T14:42:07.893Z,85.10
2019-05-06T14:44:45.919Z,85.10
2019-05-06T14:47:28.198Z,85.40
2019-05-06T14:50:05.796Z,86.90
2019-05-06T14:52:43.489Z,86.80
2019-05-06T14:55:32.604Z,85.70
2019-05-06T14:58:12.082Z,86.40
2019-05-06T15:00:53.204Z,86.00
2019-05-06T15:03:32.587Z,86.70
2019-05-06T15:06:13.947Z,88.70
2019-05-06T15:08:51.566Z,87.70
2019-05-06T15:11:32.456Z,87.40
2019-05-06T15:14:12.893Z,87.10
2019-05-06T15:16:52.941Z,87.30
2019-05-06T15:19:32.239Z,87.20
2019-05-06T15:22:09.724Z,86.60
2019-05-06T15:24:47.311Z,86.30
2019-05-06T15:27:25.104Z,86.20
2019-05-06T15:30:04.176Z,85.70
2019-05-06T15:32:42.969Z,86.90
2019-05-06T15:35:52.382Z,86.80
2019-05-06T15:38:32.228Z,87.00
2019-05-06T15:41:12.873Z,87.30
2019-05-06T15:43:50.815Z,87.60
2019-05-06T15:46:32.170Z,87.70
2019-05-06T15:49:13.103Z,87.30
2019-05-06T15:51:52.255Z,87.90
2019-05-06T15:54:29.464Z,88.10
2019-05-06T15:57:07.160Z,88.20
2019-05-06T15:59:44.698Z,88.60
2019-05-06T16:02:23.206Z,88.80
2019-05-06T16:05:11.564Z,88.90
2019-05-06T16:07:47.707Z,88.70
2019-05-06T16:10:27.660Z,89.20
2019-05-06T16:13:05.368Z,89.50
2019-05-06T16:15:43.269Z,89.60
2019-05-06T16:18:23.203Z,89.60
2019-05-06T16:21:00.091Z,90.00
2019-05-06T16:23:47.958Z,90.40
2019-05-06T16:26:27.941Z,90.40
2019-05-06T16:29:07.338Z,90.20
2019-05-06T16:31:46.700Z,90.40
2019-05-06T16:34:27.787Z,90.90
2019-05-06T16:37:07.842Z,91.40
2019-05-06T16:39:45.493Z,91.50
2019-05-06T16:42:26.947Z,92.00
2019-05-06T16:45:06.988Z,92.90
2019-05-06T16:50:22.596Z,94.90
2019-05-06T16:53:02.747Z,90.30
2019-05-06T16:58:54.609Z,93.30
2019-05-06T17:01:34.102Z,92.50
2019-05-06T17:04:34.150Z,94.50
2019-05-06T17:07:13.973Z,93.90
2019-05-06T17:09:53.599Z,94.10
2019-05-06T17:12:31.950Z,93.90
2019-05-06T17:15:10.429Z,92.80
2019-05-06T17:17:47.923Z,92.60
2019-05-06T17:20:26.019Z,93.80
2019-05-06T17:23:03.615Z,92.90
2019-05-06T17:25:45.318Z,93.70
2019-05-06T17:28:44.616Z,92.90
2019-05-06T17:31:47.649Z,93.50
2019-05-06T17:34:33.344Z,93.00
2019-05-06T17:37:28.307Z,92.20
2019-05-06T17:40:10.796Z,92.20
2019-05-06T17:42:46.956Z,94.50
2019-05-06T17:45:58.303Z,94.60
2019-05-06T17:48:42.433Z,93.50
2019-05-06T17:53:52.252Z,99.90
2019-05-06T17:56:31.755Z,90.80
2019-05-06T17:59:13.044Z,92.50
2019-05-06T18:04:29.057Z,90.00
2019-05-06T18:07:07.103Z,90.50
2019-05-06T18:09:45.934Z,90.50
2019-05-06T18:12:24.177Z,99.90
2019-05-06T18:15:03.413Z,90.50
2019-05-06T18:17:42.911Z,90.50
2019-05-06T18:20:22.150Z,90.50
2019-05-06T18:23:03.264Z,90.50
2019-05-06T18:25:43.070Z,94.20
2019-05-06T18:28:22.776Z,91.90
2019-05-06T18:31:03.147Z,94.10
2019-05-06T18:33:40.533Z,96.00
2019-05-06T18:36:18.227Z,94.20
2019-05-06T18:38:58.281Z,94.20
2019-05-06T18:41:35.872Z,94.30
2019-05-06T18:44:13.472Z,94.90
2019-05-06T18:46:52.865Z,94.20
2019-05-06T18:49:29.841Z,94.60
2019-05-06T18:52:09.302Z,95.30
2019-05-06T18:54:46.852Z,94.50
2019-05-06T18:57:24.461Z,95.10
2019-05-06T19:00:03.123Z,95.20
2019-05-06T19:02:42.321Z,97.90
2019-05-06T19:05:27.113Z,91.10
2019-05-06T19:08:05.194Z,91.10
2019-05-06T19:10:42.836Z,91.40
2019-05-06T19:13:22.352Z,91.20
2019-05-06T19:16:02.125Z,91.30
2019-05-06T19:18:42.625Z,93.90
2019-05-06T19:21:24.329Z,93.60
2019-05-06T19:24:02.784Z,95.50
2019-05-06T19:26:40.531Z,94.30
2019-05-06T19:29:18.145Z,95.20
2019-05-06T19:31:55.664Z,96.80
2019-05-06T19:34:36.847Z,93.90
2019-05-06T19:37:15.851Z,95.20
2019-05-06T19:39:53.477Z,95.20
2019-05-06T19:42:45.754Z,98.70
2019-05-06T19:45:12.964Z,94.40
2019-05-06T19:47:52.355Z,95.60
2019-05-06T19:50:32.979Z,93.30
2019-05-06T19:53:11.698Z,91.70
2019-05-06T19:55:50.304Z,93.80
2019-05-06T19:58:28.054Z,93.50
2019-05-06T20:01:06.824Z,94.10
2019-05-06T20:03:46.593Z,96.90
2019-05-06T20:06:41.533Z,92.60
2019-05-06T20:09:28.052Z,93.50
2019-05-06T20:12:12.153Z,93.30
2019-05-06T20:14:48.577Z,92.50
2019-05-06T20:17:28.718Z,96.70
2019-05-06T20:20:08.053Z,94.40
2019-05-06T20:22:47.635Z,94.30
2019-05-06T20:25:25.314Z,92.90
2019-05-06T20:28:02.918Z,92.80
2019-05-06T20:30:42.141Z,92.90
2019-05-06T20:33:19.207Z,92.70
2019-05-06T20:35:56.834Z,93.70
2019-05-06T20:38:35.701Z,93.20
2019-05-06T20:41:13.558Z,97.50
2019-05-06T20:43:51.225Z,96.80
2019-05-06T20:46:28.871Z,97.20
2019-05-06T20:49:08.212Z,97.00
2019-05-06T20:51:46.107Z,96.50
2019-05-06T20:54:24.961Z,97.60
2019-05-06T20:57:04.387Z,95.70
2019-05-06T20:59:42.193Z,95.00
2019-05-06T21:04:54.847Z,94.50
2019-05-06T21:07:33.050Z,93.00
2019-05-06T21:10:12.653Z,97.20
2019-05-06T21:12:50.429Z,96.00
2019-05-06T21:15:28.194Z,93.20
2019-05-06T21:18:05.785Z,93.70
2019-05-06T21:20:45.161Z,92.40
2019-05-06T21:23:22.816Z,91.40
2019-05-06T21:26:03.117Z,90.40
2019-05-06T21:28:39.207Z,90.70
2019-05-06T21:31:18.232Z,90.90
2019-05-06T21:33:57.582Z,91.50
2019-05-06T21:36:35.565Z,92.70
2019-05-06T21:39:14.223Z,91.20
2019-05-06T21:41:53.380Z,90.50
2019-05-06T21:44:33.292Z,91.60
2019-05-06T21:47:11.255Z,91.60
2019-05-06T21:49:53.364Z,91.00
2019-05-06T21:52:39.267Z,92.70
2019-05-06T21:55:13.432Z,92.30
2019-05-06T21:58:02.872Z,91.90
2019-05-06T22:00:45.528Z,92.60
2019-05-06T22:03:25.308Z,93.00
2019-05-06T22:06:02.968Z,92.20
2019-05-06T22:08:42.639Z,92.20
2019-05-06T22:11:20.307Z,94.10
2019-05-06T22:14:01.563Z,92.00
2019-05-06T22:16:39.527Z,88.90
2019-05-06T22:19:17.381Z,86.90
2019-05-06T22:22:04.804Z,87.80
2019-05-06T22:24:55.655Z,89.00
2019-05-06T22:27:32.962Z,90.00
2019-05-06T22:30:11.036Z,90.80
2019-05-06T22:32:52.694Z,82.60
2019-05-06T22:38:06.762Z,94.00
2019-05-06T22:43:21.861Z,93.90
2019-05-06T22:46:02.594Z,94.10
2019-05-06T22:48:43.363Z,94.50
2019-05-06T22:53:56.785Z,95.20
2019-05-06T22:56:38.384Z,94.90
2019-05-06T22:59:17.598Z,95.50
2019-05-06T23:02:13.146Z,94.60
2019-05-06T23:04:53.161Z,94.10
2019-05-06T23:10:11.176Z,95.10
2019-05-06T23:12:48.827Z,77.50
2019-05-06T23:15:28.541Z,77.90
2019-05-06T23:20:45.979Z,92.90
2019-05-06T23:23:25.618Z,94.50
2019-05-06T23:28:55.334Z,93.30
2019-05-06T23:31:33.363Z,75.20
2019-05-06T23:34:12.503Z,74.90
2019-05-06T23:37:26.341Z,98.40
2019-05-06T23:40:42.744Z,91.00
2019-05-06T23:43:52.051Z,73.50
2019-05-06T23:52:43.112Z,84.30
2019-05-06T23:55:52.157Z,89.70
2019-05-06T23:58:24.772Z,90.70
